Time;durP1;ratioP1;P1;durP2;ratioP2;P2;SDS_P1;SDS_P2;PMS_P1;PMS_P2;Temp;Humidity;BMP_temperature;BMP_pressure;BME280_temperature;BME280_humidity;BME280_pressure;Samples;Min_cycle;Max_cycle;Signal;HPM_P1;HPM_P2
2023/05/24 00:00:01;;;;;;;8.27;6.33;;;15.60;99.90;;;;;;5092991;28;20435;-67
2023/05/24 00:02:32;;;;;;;6.40;5.80;;;15.50;99.90;;;;;;5091076;28;20475;-67
2023/05/24 00:04:59;;;;;;;8.00;6.87;;;15.50;99.90;;;;;;5093098;28;20427;-67
2023/05/24 00:07:32;;;;;;;9.93;6.90;;;15.50;99.80;;;;;;5092422;28;20446;-67
2023/05/24 00:09:59;;;;;;;11.33;7.17;;;15.50;99.90;;;;;;5092494;28;20517;-68
2023/05/24 00:12:29;;;;;;;9.80;6.70;;;15.50;99.90;;;;;;5091703;28;20478;-67
2023/05/24 00:14:56;;;;;;;7.97;6.73;;;15.50;99.60;;;;;;5096825;28;20910;-68
2023/05/24 00:17:24;;;;;;;7.87;6.03;;;15.50;99.50;;;;;;5096472;28;20458;-67
2023/05/24 00:19:52;;;;;;;8.33;5.43;;;15.50;99.50;;;;;;5096929;28;20470;-67
2023/05/24 00:22:20;;;;;;;7.07;5.70;;;15.50;99.40;;;;;;5096255;28;20989;-67
2023/05/24 00:24:48;;;;;;;7.33;6.60;;;15.50;99.30;;;;;;5097003;28;20444;-68
2023/05/24 00:27:16;;;;;;;8.37;6.40;;;15.50;99.00;;;;;;5096287;28;20521;-67
2023/05/24 00:29:43;;;;;;;8.73;6.37;;;15.50;99.10;;;;;;5096537;28;20470;-67
2023/05/24 00:32:10;;;;;;;6.70;5.60;;;15.50;99.00;;;;;;5096652;28;20470;-67
2023/05/24 00:34:37;;;;;;;7.50;6.10;;;15.50;99.00;;;;;;5096485;28;20941;-68
2023/05/24 00:37:04;;;;;;;6.83;5.67;;;15.50;98.70;;;;;;5096345;28;20469;-67
2023/05/24 00:39:31;;;;;;;5.90;5.20;;;15.50;98.70;;;;;;5096452;28;20475;-67
2023/05/24 00:41:59;;;;;;;6.83;6.10;;;15.50;98.70;;;;;;5096216;28;20565;-67
2023/05/24 00:44:27;;;;;;;7.40;5.93;;;15.40;98.80;;;;;;5096193;28;20475;-68
2023/05/24 00:46:54;;;;;;;6.33;5.40;;;15.50;98.80;;;;;;5096019;28;20431;-67
2023/05/24 00:49:22;;;;;;;6.63;5.17;;;15.50;98.70;;;;;;5095940;28;20478;-67
2023/05/24 00:51:50;;;;;;;7.20;5.30;;;15.40;98.50;;;;;;5096332;28;20496;-67
2023/05/24 00:54:17;;;;;;;8.93;7.13;;;15.40;98.40;;;;;;5095324;28;20466;-67
2023/05/24 00:56:44;;;;;;;7.00;5.03;;;15.40;98.20;;;;;;5096074;28;20435;-68
2023/05/24 00:59:13;;;;;;;8.07;5.57;;;15.40;98.40;;;;;;5096033;28;20435;-67
2023/05/24 01:01:40;;;;;;;6.20;4.57;;;15.40;98.60;;;;;;5096051;28;20510;-67
2023/05/24 01:04:07;;;;;;;8.53;5.10;;;15.40;98.70;;;;;;5094306;28;20448;-67
2023/05/24 01:06:44;;;;;;;5.90;5.13;;;15.40;98.70;;;;;;5096079;28;20485;-67
2023/05/24 01:09:22;;;;;;;8.10;5.80;;;15.40;98.80;;;;;;5095012;28;20435;-67
2023/05/24 01:11:59;;;;;;;6.10;5.10;;;15.30;98.80;;;;;;5095490;28;20474;-67
2023/05/24 01:14:35;;;;;;;6.40;5.80;;;15.40;98.80;;;;;;5095517;28;20435;-67
2023/05/24 01:17:08;;;;;;;6.27;4.90;;;15.30;98.70;;;;;;5095795;28;20467;-67
2023/05/24 01:19:51;;;;;;;7.50;6.03;;;15.30;98.80;;;;;;5095205;28;20480;-68
2023/05/24 01:22:46;;;;;;;5.83;5.10;;;15.30;99.00;;;;;;5095265;28;20522;-67
2023/05/24 01:25:27;;;;;;;7.33;5.40;;;15.30;98.90;;;;;;5074110;28;20436;-67
2023/05/24 01:27:56;;;;;;;6.40;5.03;;;15.30;99.00;;;;;;5075482;28;20859;-67
2023/05/24 01:30:24;;;;;;;5.97;5.37;;;15.30;99.00;;;;;;5075131;28;20431;-67
2023/05/24 01:32:51;;;;;;;8.77;5.53;;;15.20;99.00;;;;;;5075070;28;20954;-67
2023/05/24 01:35:18;;;;;;;6.07;4.80;;;15.30;99.20;;;;;;5075209;28;20502;-67
2023/05/24 01:37:45;;;;;;;6.87;5.53;;;15.20;99.20;;;;;;5075161;28;20465;-68
2023/05/24 01:40:13;;;;;;;7.40;5.43;;;15.20;99.20;;;;;;5091387;28;20436;-67
2023/05/24 01:42:45;;;;;;;5.37;4.43;;;15.20;99.20;;;;;;5095286;28;20521;-67
2023/05/24 01:45:19;;;;;;;6.30;4.90;;;15.20;99.30;;;;;;5095131;28;20431;-67
2023/05/24 01:48:02;;;;;;;7.93;5.77;;;15.20;99.50;;;;;;5094828;28;20528;-67
2023/05/24 01:50:32;;;;;;;8.23;5.60;;;15.20;99.60;;;;;;5074816;28;20432;-68
2023/05/24 01:53:03;;;;;;;6.23;5.47;;;15.20;99.60;;;;;;5074923;28;20520;-67
2023/05/24 01:55:32;;;;;;;6.63;5.60;;;15.20;99.60;;;;;;5074597;28;20486;-67
2023/05/24 01:58:04;;;;;;;5.87;4.93;;;15.20;99.60;;;;;;5074382;28;20821;-68
2023/05/24 02:00:33;;;;;;;7.90;5.57;;;15.20;99.50;;;;;;5093607;28;20953;-68
2023/05/24 02:03:01;;;;;;;6.30;5.33;;;15.20;99.70;;;;;;5094966;28;20479;-68
2023/05/24 02:05:29;;;;;;;6.50;5.80;;;15.20;99.80;;;;;;5094280;28;20479;-68
2023/05/24 02:07:56;;;;;;;6.97;5.70;;;15.20;99.60;;;;;;5094438;28;20466;-68
2023/05/24 02:10:23;;;;;;;5.40;4.90;;;15.20;99.60;;;;;;5093960;28;20442;-68
2023/05/24 02:12:50;;;;;;;8.00;7.20;;;15.20;99.60;;;;;;5094650;28;20442;-67
2023/05/24 02:15:17;;;;;;;7.70;6.90;;;15.10;99.50;;;;;;5093836;28;20467;-67
2023/05/24 02:17:46;;;;;;;7.57;6.80;;;15.20;99.60;;;;;;5094074;28;20471;-68
2023/05/24 02:20:16;;;;;;;6.97;6.27;;;15.10;99.90;;;;;;5094104;28;20435;-67
2023/05/24 02:22:43;;;;;;;7.77;5.77;;;15.10;99.90;;;;;;5094463;28;20483;-67
2023/05/24 02:25:10;;;;;;;11.00;7.13;;;15.10;99.60;;;;;;5093703;28;20470;-68
2023/05/24 02:27:37;;;;;;;8.13;7.33;;;15.10;99.70;;;;;;5094307;28;20470;-68
2023/05/24 02:30:04;;;;;;;6.43;5.70;;;15.10;99.70;;;;;;5093764;28;20447;-68
2023/05/24 02:32:31;;;;;;;8.77;6.50;;;15.10;99.60;;;;;;5094480;28;20465;-68
2023/05/24 02:35:00;;;;;;;9.53;6.37;;;15.10;99.50;;;;;;5093344;28;20518;-68
2023/05/24 02:37:27;;;;;;;8.70;6.30;;;15.10;99.40;;;;;;5093626;28;20431;-68
2023/05/24 02:39:54;;;;;;;8.07;6.57;;;15.00;99.30;;;;;;5093489;28;20447;-68
2023/05/24 02:42:21;;;;;;;6.47;5.63;;;15.00;99.20;;;;;;5094034;28;20879;-67
2023/05/24 02:44:51;;;;;;;5.67;5.03;;;15.00;99.50;;;;;;5092474;28;20440;-68
2023/05/24 02:47:18;;;;;;;9.63;6.33;;;15.00;99.50;;;;;;5093911;28;20461;-68
2023/05/24 02:49:45;;;;;;;8.83;5.53;;;15.00;99.50;;;;;;5094220;28;20470;-68
2023/05/24 02:52:14;;;;;;;6.57;5.33;;;15.00;99.30;;;;;;5094320;28;20805;-68
2023/05/24 02:54:41;;;;;;;8.60;6.00;;;15.00;99.10;;;;;;5092644;28;20986;-67
2023/05/24 02:57:11;;;;;;;6.90;6.10;;;15.00;98.70;;;;;;5093149;28;20451;-68
2023/05/24 02:59:38;;;;;;;8.23;5.63;;;15.00;98.40;;;;;;5092506;28;20439;-67
2023/05/24 03:02:05;;;;;;;7.37;5.73;;;15.00;98.20;;;;;;5093712;28;20511;-67
2023/05/24 03:04:32;;;;;;;7.63;6.70;;;15.00;98.00;;;;;;5093066;28;20431;-68
2023/05/24 03:06:59;;;;;;;6.70;5.80;;;15.00;97.70;;;;;;5093774;28;20443;-68
2023/05/24 03:09:27;;;;;;;6.20;5.50;;;14.90;97.50;;;;;;5093078;28;20474;-68
2023/05/24 03:11:54;;;;;;;6.40;5.57;;;14.90;97.50;;;;;;5093632;28;20435;-67
2023/05/24 03:14:23;;;;;;;7.37;5.80;;;14.90;97.50;;;;;;5093533;28;20478;-68
2023/05/24 03:16:50;;;;;;;8.43;5.43;;;14.90;97.60;;;;;;5093111;28;20471;-68
2023/05/24 03:19:19;;;;;;;7.60;5.63;;;14.80;97.70;;;;;;5092872;28;20451;-68
2023/05/24 03:21:46;;;;;;;8.70;6.13;;;14.80;97.90;;;;;;5072937;28;20616;-68
2023/05/24 03:24:13;;;;;;;7.40;5.57;;;14.80;98.10;;;;;;5078753;28;20439;-68
2023/05/24 03:26:41;;;;;;;6.93;5.13;;;14.90;98.10;;;;;;5093050;28;20475;-68
2023/05/24 03:29:10;;;;;;;7.47;6.23;;;14.80;98.10;;;;;;5092733;28;20465;-68
2023/05/24 03:31:37;;;;;;;7.20;5.60;;;14.80;98.20;;;;;;5093352;28;20851;-68
2023/05/24 03:34:04;;;;;;;6.20;5.60;;;14.80;98.10;;;;;;5092838;28;20815;-67
2023/05/24 03:36:31;;;;;;;8.17;6.10;;;14.80;97.90;;;;;;5077998;28;20479;-67
2023/05/24 03:38:58;;;;;;;7.80;7.00;;;14.80;97.90;;;;;;5074681;28;20432;-68
2023/05/24 03:41:26;;;;;;;9.20;5.90;;;14.80;98.10;;;;;;5093032;28;20471;-67
2023/05/24 03:43:54;;;;;;;7.40;6.10;;;14.80;97.90;;;;;;5092854;28;20573;-68
2023/05/24 03:46:21;;;;;;;7.97;6.47;;;14.80;98.00;;;;;;5092681;28;20933;-68
2023/05/24 03:48:48;;;;;;;7.43;6.27;;;14.80;98.20;;;;;;5092286;28;20481;-68
2023/05/24 03:51:17;;;;;;;9.60;7.40;;;14.80;98.40;;;;;;5092293;28;20450;-67
2023/05/24 03:53:49;;;;;;;6.90;6.20;;;14.80;98.60;;;;;;5092892;28;20470;-68
2023/05/24 03:56:16;;;;;;;9.93;6.60;;;14.70;99.00;;;;;;5092046;28;20467;-69
2023/05/24 03:58:43;;;;;;;10.63;6.37;;;14.70;99.30;;;;;;5092832;28;20471;-68
2023/05/24 04:01:11;;;;;;;8.60;6.90;;;14.70;99.30;;;;;;5091708;28;20914;-68
2023/05/24 04:03:39;;;;;;;8.97;7.90;;;14.70;99.10;;;;;;5092816;28;20483;-68
2023/05/24 04:06:06;;;;;;;7.33;6.50;;;14.70;98.80;;;;;;5092361;28;20436;-68
2023/05/24 04:08:33;;;;;;;7.20;6.30;;;14.60;99.00;;;;;;5091252;28;20861;-68
2023/05/24 04:11:00;;;;;;;8.90;6.83;;;14.60;99.30;;;;;;5092846;28;20439;-68
2023/05/24 04:13:27;;;;;;;8.57;6.57;;;14.60;99.90;;;;;;5092124;28;20442;-68
2023/05/24 04:15:54;;;;;;;10.13;6.17;;;14.60;99.70;;;;;;5092832;28;20531;-68
2023/05/24 04:18:23;;;;;;;8.23;7.33;;;14.60;99.90;;;;;;5092390;28;20517;-68
2023/05/24 04:20:50;;;;;;;7.70;6.90;;;14.60;99.90;;;;;;5092947;28;20482;-68
2023/05/24 04:23:17;;;;;;;8.07;7.20;;;14.50;99.90;;;;;;5092065;28;20483;-68
2023/05/24 04:25:44;;;;;;;10.80;7.73;;;14.50;99.90;;;;;;5092757;28;20467;-68
2023/05/24 04:28:11;;;;;;;11.23;8.00;;;14.50;99.90;;;;;;5091745;28;20485;-68
2023/05/24 04:30:38;;;;;;;11.07;8.60;;;14.50;99.90;;;;;;5092422;28;20435;-68
2023/05/24 04:33:05;;;;;;;8.83;7.93;;;14.50;99.90;;;;;;5092125;28;20451;-68
2023/05/24 04:35:34;;;;;;;7.87;6.80;;;14.50;99.90;;;;;;5092018;28;20484;-68
2023/05/24 04:38:01;;;;;;;11.10;7.07;;;14.50;99.90;;;;;;5092239;28;20534;-68
2023/05/24 04:40:28;;;;;;;7.33;6.53;;;14.50;99.90;;;;;;5092741;28;20541;-68
2023/05/24 04:42:55;;;;;;;12.23;7.70;;;14.60;99.90;;;;;;5092094;28;20514;-68
2023/05/24 04:45:22;;;;;;;18.67;7.30;;;14.60;99.90;;;;;;5084273;28;20459;-68
2023/05/24 04:47:49;;;;;;;9.90;7.50;;;14.50;99.90;;;;;;5092705;28;20466;-68
2023/05/24 04:50:16;;;;;;;9.47;7.83;;;14.60;99.90;;;;;;5091853;28;20466;-68
2023/05/24 04:52:44;;;;;;;8.80;7.90;;;14.60;99.90;;;;;;5092620;28;20555;-68
2023/05/24 04:55:13;;;;;;;13.10;7.43;;;14.60;99.90;;;;;;5092512;28;20435;-68
2023/05/24 04:57:40;;;;;;;9.83;8.07;;;14.60;99.90;;;;;;5092728;28;20439;-68
2023/05/24 05:00:09;;;;;;;9.03;8.13;;;14.60;99.90;;;;;;5094984;28;20485;-68
2023/05/24 05:02:35;;;;;;;11.37;9.27;;;14.60;99.90;;;;;;5096216;28;20494;-68
2023/05/24 05:05:07;;;;;;;8.40;7.30;;;14.60;99.90;;;;;;5095647;28;20474;-68
2023/05/24 05:07:33;;;;;;;10.13;8.73;;;14.60;99.90;;;;;;5078366;28;20451;-68
2023/05/24 05:10:14;;;;;;;9.50;7.60;;;14.50;99.90;;;;;;5086984;28;20436;-68
2023/05/24 05:12:41;;;;;;;9.77;8.33;;;14.50;99.90;;;;;;5082899;28;20823;-68
2023/05/24 05:15:17;;;;;;;10.10;7.83;;;14.60;99.90;;;;;;5084921;28;20818;-68
2023/05/24 05:17:44;;;;;;;9.73;7.67;;;14.60;99.90;;;;;;5085551;28;20536;-68
2023/05/24 05:20:11;;;;;;;8.30;5.83;;;14.50;99.90;;;;;;5079149;28;20440;-68
2023/05/24 05:22:38;;;;;;;8.07;6.83;;;14.60;99.90;;;;;;5083332;28;21030;-68
2023/05/24 05:25:07;;;;;;;7.57;5.97;;;14.50;99.70;;;;;;5083876;28;20479;-68
2023/05/24 05:27:34;;;;;;;7.10;6.13;;;14.50;99.30;;;;;;5085125;28;20441;-68
2023/05/24 05:30:01;;;;;;;8.60;5.83;;;14.50;99.30;;;;;;5086168;28;20500;-68
2023/05/24 05:32:29;;;;;;;9.10;6.80;;;14.50;99.40;;;;;;5084284;28;20531;-68
2023/05/24 05:34:56;;;;;;;7.43;5.67;;;14.50;99.10;;;;;;5080535;28;20801;-68
2023/05/24 05:37:22;;;;;;;7.90;6.53;;;14.50;99.30;;;;;;5085094;28;20431;-69
2023/05/24 05:39:49;;;;;;;8.07;6.47;;;14.50;99.00;;;;;;5085917;28;20500;-69
2023/05/24 05:42:18;;;;;;;8.00;6.37;;;14.50;99.10;;;;;;5085252;28;20447;-69
2023/05/24 05:44:45;;;;;;;9.23;5.97;;;14.50;99.20;;;;;;5084172;28;20456;-68
2023/05/24 05:47:12;;;;;;;8.50;6.70;;;14.50;99.30;;;;;;5085638;28;20443;-68
2023/05/24 05:49:39;;;;;;;7.00;5.50;;;14.50;99.40;;;;;;5087995;28;20431;-68
2023/05/24 05:52:06;;;;;;;14.73;7.10;;;14.50;99.60;;;;;;5087143;28;20451;-68
2023/05/24 05:54:33;;;;;;;7.10;5.30;;;14.50;99.50;;;;;;5080854;28;20806;-68
2023/05/24 05:57:00;;;;;;;9.23;6.53;;;14.60;99.60;;;;;;5084777;28;20435;-68
2023/05/24 05:59:29;;;;;;;10.57;7.67;;;14.60;99.30;;;;;;5085188;28;20479;-68
2023/05/24 06:01:56;;;;;;;7.20;5.67;;;14.50;98.80;;;;;;5087320;28;20443;-69
2023/05/24 06:04:23;;;;;;;9.60;6.30;;;14.50;98.90;;;;;;5085315;28;20532;-68
2023/05/24 06:06:50;;;;;;;9.10;6.77;;;14.50;98.90;;;;;;5084131;28;20871;-68
2023/05/24 06:09:17;;;;;;;12.40;7.20;;;14.50;99.00;;;;;;5085939;28;20458;-68
2023/05/24 06:11:44;;;;;;;13.50;9.30;;;14.50;99.10;;;;;;5085142;28;21267;-68
2023/05/24 06:14:12;;;;;;;7.23;6.03;;;14.50;99.30;;;;;;5080496;28;20436;-68
2023/05/24 06:16:42;;;;;;;7.23;5.73;;;14.50;99.50;;;;;;5081205;28;20987;-68
2023/05/24 06:19:09;;;;;;;7.77;6.33;;;14.50;99.30;;;;;;5087031;28;20453;-69
2023/05/24 06:21:39;;;;;;;8.33;6.37;;;14.50;99.30;;;;;;5088486;28;20474;-68
2023/05/24 06:24:08;;;;;;;9.00;7.00;;;14.50;99.30;;;;;;5081195;28;20565;-69
2023/05/24 06:26:37;;;;;;;10.47;7.33;;;14.50;99.30;;;;;;5083253;28;20484;-68
2023/05/24 06:29:04;;;;;;;7.70;6.10;;;14.60;99.00;;;;;;5084972;28;20824;-68
2023/05/24 06:31:31;;;;;;;10.23;6.97;;;14.60;98.90;;;;;;5080849;28;20585;-69
2023/05/24 06:34:00;;;;;;;7.17;5.90;;;14.60;98.60;;;;;;5087943;28;20440;-68
2023/05/24 06:36:27;;;;;;;9.47;6.57;;;14.60;98.30;;;;;;5083784;28;20526;-68
2023/05/24 06:38:56;;;;;;;9.20;8.00;;;14.60;98.40;;;;;;5085896;28;20467;-68
2023/05/24 06:41:23;;;;;;;9.40;7.70;;;14.60;98.60;;;;;;5086378;28;20432;-68
2023/05/24 06:43:50;;;;;;;9.37;7.20;;;14.70;98.80;;;;;;5081826;28;20495;-69
2023/05/24 06:46:17;;;;;;;10.37;6.57;;;14.70;98.70;;;;;;5082348;28;20443;-68
2023/05/24 06:48:44;;;;;;;6.20;5.20;;;14.70;98.50;;;;;;5089751;28;20530;-68
2023/05/24 06:51:13;;;;;;;8.80;5.60;;;14.70;97.90;;;;;;5089099;28;20479;-68
2023/05/24 06:53:40;;;;;;;7.90;6.17;;;14.80;97.80;;;;;;5088411;28;20905;-68
2023/05/24 06:56:08;;;;;;;7.97;6.27;;;14.80;97.70;;;;;;5088645;28;20435;-68
2023/05/24 06:58:35;;;;;;;7.50;5.83;;;14.80;98.20;;;;;;5088742;28;20463;-68
2023/05/24 07:01:03;;;;;;;8.90;6.33;;;14.90;97.70;;;;;;5088572;28;20995;-68
2023/05/24 07:03:30;;;;;;;7.80;6.17;;;15.00;97.80;;;;;;5078137;28;20480;-68
2023/05/24 07:06:02;;;;;;;7.93;6.50;;;15.00;97.30;;;;;;5085695;28;20439;-68
2023/05/24 07:08:33;;;;;;;9.43;6.80;;;15.10;97.30;;;;;;5091529;28;20454;-68
2023/05/24 07:11:01;;;;;;;8.70;6.43;;;15.20;97.20;;;;;;5088498;28;20856;-68
2023/05/24 07:13:28;;;;;;;8.20;6.60;;;15.30;97.10;;;;;;5088335;28;20446;-69
2023/05/24 07:15:54;;;;;;;7.60;5.90;;;15.40;97.10;;;;;;5083985;28;20988;-68
2023/05/24 07:18:23;;;;;;;9.20;6.10;;;15.50;96.60;;;;;;5092305;28;20460;-68
2023/05/24 07:20:50;;;;;;;7.97;5.87;;;15.50;96.40;;;;;;5088265;28;20439;-68
2023/05/24 07:23:17;;;;;;;6.33;5.10;;;15.60;95.80;;;;;;5083060;28;20570;-68
2023/05/24 07:25:46;;;;;;;9.93;6.33;;;15.80;95.80;;;;;;5085276;28;20490;-68
2023/05/24 07:28:14;;;;;;;8.60;7.20;;;15.90;95.30;;;;;;5084125;28;20829;-68
2023/05/24 07:30:41;;;;;;;10.77;7.30;;;15.90;95.10;;;;;;5088221;28;20447;-69
2023/05/24 07:33:13;;;;;;;8.37;6.73;;;15.90;95.00;;;;;;5088300;28;20446;-69
2023/05/24 07:35:40;;;;;;;10.30;8.80;;;15.80;94.60;;;;;;5085644;28;20443;-68
2023/05/24 07:38:07;;;;;;;11.80;8.33;;;15.80;94.60;;;;;;5086317;28;20976;-68
2023/05/24 07:40:34;;;;;;;10.30;9.30;;;15.70;94.60;;;;;;5087966;28;20439;-68
2023/05/24 07:43:03;;;;;;;8.60;7.00;;;15.70;94.50;;;;;;5087972;28;20517;-68
2023/05/24 07:45:30;;;;;;;8.00;6.40;;;15.60;94.40;;;;;;5087613;28;20860;-68
2023/05/24 07:47:59;;;;;;;9.43;7.07;;;15.60;94.80;;;;;;5088303;28;20802;-68
2023/05/24 07:50:27;;;;;;;11.00;7.97;;;15.50;95.00;;;;;;5087931;28;20926;-68
2023/05/24 07:52:54;;;;;;;8.00;7.07;;;15.50;95.30;;;;;;5083995;28;20450;-68
2023/05/24 07:55:22;;;;;;;8.67;6.90;;;15.50;95.30;;;;;;5084066;28;20440;-68
2023/05/24 07:57:48;;;;;;;8.00;6.40;;;15.50;95.10;;;;;;5091726;28;20504;-68
2023/05/24 08:00:19;;;;;;;8.30;6.33;;;15.50;94.80;;;;;;5084974;28;20482;-68
2023/05/24 08:02:46;;;;;;;10.50;6.87;;;15.40;94.70;;;;;;5080595;28;20930;-68
2023/05/24 08:05:13;;;;;;;8.17;7.17;;;15.40;95.10;;;;;;5082646;28;20482;-69
2023/05/24 08:07:41;;;;;;;8.10;6.87;;;15.40;95.00;;;;;;5085783;28;20442;-68
2023/05/24 08:10:11;;;;;;;7.50;5.83;;;15.40;95.10;;;;;;5085197;28;20468;-68
2023/05/24 08:12:38;;;;;;;9.30;6.93;;;15.40;95.20;;;;;;5091079;28;20534;-68
2023/05/24 08:15:06;;;;;;;8.17;5.73;;;15.40;94.40;;;;;;5084197;28;20436;-68
2023/05/24 08:17:34;;;;;;;7.57;6.30;;;15.40;94.30;;;;;;5087502;28;20469;-69
2023/05/24 08:20:02;;;;;;;6.70;5.63;;;15.40;94.50;;;;;;5087851;28;20530;-69
2023/05/24 08:22:29;;;;;;;6.87;5.87;;;15.40;94.60;;;;;;5083459;28;20435;-68
2023/05/24 08:24:58;;;;;;;7.97;6.63;;;15.40;94.60;;;;;;5087970;28;21005;-69
2023/05/24 08:27:27;;;;;;;9.17;7.17;;;15.40;94.80;;;;;;5086663;28;20435;-69
2023/05/24 08:29:54;;;;;;;8.07;7.30;;;15.40;94.80;;;;;;5082886;28;20483;-68
2023/05/24 08:32:21;;;;;;;7.20;6.30;;;15.40;95.10;;;;;;5087118;28;20995;-68
2023/05/24 08:34:49;;;;;;;8.60;7.57;;;15.50;95.30;;;;;;5084678;28;20443;-68
2023/05/24 08:37:19;;;;;;;12.63;8.63;;;15.50;95.40;;;;;;5091088;28;20447;-68
2023/05/24 08:39:46;;;;;;;10.10;8.13;;;15.50;95.50;;;;;;5090947;28;20447;-68
2023/05/24 08:42:14;;;;;;;8.73;7.80;;;15.40;95.50;;;;;;5090172;28;20860;-68
2023/05/24 08:44:46;;;;;;;9.17;6.90;;;15.40;95.20;;;;;;5087180;28;20488;-69
2023/05/24 08:47:14;;;;;;;10.70;6.30;;;15.40;95.20;;;;;;5090825;28;20628;-68
2023/05/24 08:49:41;;;;;;;10.03;7.90;;;15.30;95.20;;;;;;5090460;28;20507;-68
2023/05/24 08:52:11;;;;;;;10.53;6.70;;;15.30;95.10;;;;;;5087375;28;20443;-68
2023/05/24 08:54:40;;;;;;;8.10;6.50;;;15.30;95.00;;;;;;5084829;28;20435;-68
2023/05/24 08:57:07;;;;;;;9.97;7.03;;;15.30;95.00;;;;;;5086856;28;20439;-68
2023/05/24 08:59:34;;;;;;;8.37;7.50;;;15.30;94.80;;;;;;5090479;28;20526;-69
2023/05/24 09:02:02;;;;;;;9.50;7.60;;;15.30;94.70;;;;;;5087914;28;20439;-69
2023/05/24 09:04:30;;;;;;;8.50;6.50;;;15.30;95.00;;;;;;5090834;28;21013;-68
2023/05/24 09:06:58;;;;;;;9.70;6.83;;;15.40;95.00;;;;;;5090517;28;20940;-68
2023/05/24 09:09:27;;;;;;;12.80;7.47;;;15.30;94.50;;;;;;5088518;28;20847;-69
2023/05/24 09:12:00;;;;;;;12.60;6.40;;;15.30;94.50;;;;;;5088545;28;20525;-68
2023/05/24 09:14:33;;;;;;;13.63;7.87;;;15.30;94.30;;;;;;5091633;28;20471;-68
2023/05/24 09:17:00;;;;;;;10.83;7.50;;;15.30;94.30;;;;;;5088748;28;20495;-68
2023/05/24 09:19:27;;;;;;;9.87;8.27;;;15.40;94.50;;;;;;5090189;28;20566;-68
2023/05/24 09:21:55;;;;;;;10.53;6.57;;;15.30;94.60;;;;;;5090270;28;20450;-68
2023/05/24 09:24:23;;;;;;;10.87;8.63;;;15.40;94.90;;;;;;5086004;28;20548;-68
2023/05/24 09:26:52;;;;;;;11.30;8.40;;;15.30;94.70;;;;;;5090205;28;20432;-68
2023/05/24 09:29:23;;;;;;;10.97;7.10;;;15.30;94.60;;;;;;5086637;28;20451;-68
2023/05/24 09:31:50;;;;;;;10.47;7.43;;;15.30;94.80;;;;;;5086247;28;20447;-68
2023/05/24 09:34:17;;;;;;;7.27;6.50;;;15.30;94.90;;;;;;5086242;28;20467;-69
2023/05/24 09:36:47;;;;;;;11.30;7.03;;;15.20;94.40;;;;;;5089523;28;20901;-69
2023/05/24 09:39:15;;;;;;;9.13;6.90;;;15.20;94.00;;;;;;5089720;28;20450;-68
2023/05/24 09:41:44;;;;;;;11.00;6.70;;;15.10;94.40;;;;;;5089865;28;20441;-68
2023/05/24 09:44:15;;;;;;;12.33;8.33;;;15.10;94.60;;;;;;5085015;28;20570;-69
2023/05/24 09:46:42;;;;;;;8.57;6.93;;;15.00;94.70;;;;;;5088868;28;20466;-68
2023/05/24 09:49:09;;;;;;;9.40;7.10;;;14.90;94.90;;;;;;5089536;28;20496;-68
2023/05/24 09:51:38;;;;;;;12.37;7.07;;;15.00;95.20;;;;;;5087901;28;20431;-68
2023/05/24 09:54:06;;;;;;;10.17;7.53;;;15.00;95.30;;;;;;5091151;28;20445;-68
2023/05/24 09:56:34;;;;;;;9.47;7.30;;;15.00;95.40;;;;;;5089719;28;20526;-68
2023/05/24 09:59:07;;;;;;;9.60;7.07;;;15.00;95.50;;;;;;5089434;28;20443;-68
2023/05/24 10:01:35;;;;;;;14.03;8.40;;;15.00;95.70;;;;;;5088373;28;20443;-69
2023/05/24 10:04:05;;;;;;;10.77;7.90;;;15.10;96.00;;;;;;5089527;28;20479;-68
2023/05/24 10:06:36;;;;;;;9.07;7.13;;;15.10;96.00;;;;;;5086317;28;20452;-68
2023/05/24 10:09:05;;;;;;;9.53;8.00;;;15.20;96.20;;;;;;5089328;28;20439;-68
2023/05/24 10:11:33;;;;;;;27.10;7.20;;;15.20;96.10;;;;;;5085249;28;20424;-68
2023/05/24 10:14:07;;;;;;;7.50;6.30;;;15.20;96.10;;;;;;5085932;28;20530;-68
2023/05/24 10:16:36;;;;;;;15.30;7.90;;;15.30;95.80;;;;;;5090272;28;20495;-68
2023/05/24 10:19:03;;;;;;;13.57;8.07;;;15.30;96.00;;;;;;5090388;28;20614;-68
2023/05/24 10:21:32;;;;;;;10.70;9.33;;;15.30;95.90;;;;;;5086087;28;20527;-68
2023/05/24 10:24:02;;;;;;;12.87;7.90;;;15.40;96.00;;;;;;5085571;28;20486;-68
2023/05/24 10:26:32;;;;;;;9.23;6.80;;;15.50;95.70;;;;;;5089075;28;20482;-68
2023/05/24 10:29:04;;;;;;;13.17;8.13;;;15.60;95.60;;;;;;5086771;28;20782;-68
2023/05/24 10:31:33;;;;;;;13.10;7.57;;;15.60;95.30;;;;;;5093076;28;20452;-68
2023/05/24 10:34:04;;;;;;;9.43;7.27;;;15.70;95.40;;;;;;5087025;28;20523;-68
2023/05/24 10:36:31;;;;;;;10.50;8.17;;;15.80;95.70;;;;;;5091639;28;20486;-68
2023/05/24 10:39:00;;;;;;;14.10;8.93;;;15.90;95.50;;;;;;5089134;28;20802;-68
2023/05/24 10:41:27;;;;;;;10.87;7.60;;;16.00;95.50;;;;;;5089034;28;20439;-68
2023/05/24 10:43:54;;;;;;;12.83;7.43;;;16.20;95.50;;;;;;5086586;28;20480;-68
2023/05/24 10:46:22;;;;;;;11.47;8.03;;;16.30;95.30;;;;;;5088846;28;20533;-68
2023/05/24 10:49:01;;;;;;;12.40;7.23;;;16.40;95.40;;;;;;5084601;28;20797;-68
2023/05/24 10:51:32;;;;;;;10.43;7.23;;;16.50;94.90;;;;;;5088865;28;20439;-68
2023/05/24 10:54:14;;;;;;;10.80;9.23;;;16.70;94.20;;;;;;5086280;28;20446;-68
2023/05/24 10:56:42;;;;;;;12.40;7.77;;;16.80;93.00;;;;;;5084975;28;20903;-68
2023/05/24 10:59:09;;;;;;;8.50;7.00;;;17.00;93.50;;;;;;5088798;28;20788;-68
2023/05/24 11:01:36;;;;;;;11.77;8.50;;;17.10;93.00;;;;;;5088827;28;20482;-68
2023/05/24 11:04:10;;;;;;;11.00;7.40;;;17.20;92.90;;;;;;5086013;28;20436;-68
2023/05/24 11:06:48;;;;;;;10.23;7.07;;;17.20;92.70;;;;;;5088713;28;20794;-68
2023/05/24 11:09:15;;;;;;;10.53;7.50;;;17.30;92.40;;;;;;5080808;28;20910;-68
2023/05/24 11:11:45;;;;;;;14.67;8.70;;;17.30;92.50;;;;;;5084421;28;20446;-68
2023/05/24 11:14:13;;;;;;;11.23;7.77;;;17.30;91.10;;;;;;5081210;28;20442;-68
2023/05/24 11:16:40;;;;;;;11.67;8.23;;;17.30;90.90;;;;;;5085369;28;20460;-68
2023/05/24 11:19:18;;;;;;;10.03;8.27;;;17.30;91.70;;;;;;5087256;28;20448;-68
2023/05/24 11:21:46;;;;;;;12.97;8.60;;;17.30;91.40;;;;;;5084377;28;20439;-68
2023/05/24 11:24:14;;;;;;;11.20;8.20;;;17.30;91.30;;;;;;5084343;28;20926;-68
2023/05/24 11:26:41;;;;;;;10.70;7.40;;;17.30;91.50;;;;;;5087446;28;20447;-69
2023/05/24 11:29:08;;;;;;;12.00;7.87;;;17.20;91.10;;;;;;5086649;28;20435;-69
2023/05/24 11:31:38;;;;;;;15.17;9.40;;;17.20;90.60;;;;;;5085872;28;20450;-69
2023/05/24 11:34:06;;;;;;;10.83;8.57;;;17.10;90.80;;;;;;5088882;28;20435;-68
2023/05/24 11:36:36;;;;;;;12.20;9.47;;;17.00;90.40;;;;;;5083670;28;20431;-69
2023/05/24 11:39:07;;;;;;;14.67;9.50;;;17.00;90.60;;;;;;5088123;28;20449;-68
2023/05/24 11:41:37;;;;;;;11.80;8.87;;;16.90;90.50;;;;;;5086578;28;20443;-69
2023/05/24 11:44:04;;;;;;;8.97;7.87;;;16.80;90.20;;;;;;5088901;28;20494;-68
2023/05/24 11:46:31;;;;;;;16.33;8.80;;;16.70;90.90;;;;;;5087999;28;20482;-69
2023/05/24 11:48:59;;;;;;;11.23;9.37;;;16.60;90.40;;;;;;5088026;28;20478;-68
2023/05/24 11:51:27;;;;;;;9.43;8.40;;;16.50;90.30;;;;;;5083576;28;20477;-68
2023/05/24 11:53:56;;;;;;;14.07;8.60;;;16.50;90.70;;;;;;5087840;28;20450;-68
2023/05/24 11:56:23;;;;;;;12.00;8.03;;;16.40;91.20;;;;;;5084625;28;20949;-68
2023/05/24 11:58:51;;;;;;;15.13;8.63;;;16.30;91.00;;;;;;5087001;28;20533;-68
2023/05/24 12:01:26;;;;;;;13.80;8.80;;;16.20;91.10;;;;;;5085304;28;20474;-68
2023/05/24 12:03:57;;;;;;;12.13;9.03;;;16.20;91.50;;;;;;5087375;28;20883;-68
2023/05/24 12:06:24;;;;;;;12.90;7.90;;;16.20;91.90;;;;;;5087816;28;20518;-68
2023/05/24 12:08:51;;;;;;;14.97;8.57;;;16.20;91.90;;;;;;5085688;28;20447;-68
2023/05/24 12:11:21;;;;;;;12.50;8.20;;;16.20;91.60;;;;;;5090518;28;20535;-68
2023/05/24 12:13:48;;;;;;;11.10;7.73;;;16.20;91.80;;;;;;5091651;28;20437;-69
2023/05/24 12:16:16;;;;;;;11.87;8.33;;;16.30;91.20;;;;;;5091102;28;20498;-68
2023/05/24 12:18:44;;;;;;;12.50;9.00;;;16.40;91.30;;;;;;5091768;28;20434;-68
2023/05/24 12:21:11;;;;;;;12.93;7.50;;;16.40;91.50;;;;;;5090390;28;20979;-69
2023/05/24 12:23:39;;;;;;;11.43;8.60;;;16.40;91.60;;;;;;5087912;28;20447;-68
2023/05/24 12:26:06;;;;;;;14.10;8.67;;;16.40;90.90;;;;;;5087991;28;20521;-68
2023/05/24 12:28:35;;;;;;;17.53;8.70;;;16.40;91.40;;;;;;5088302;28;20493;-68
2023/05/24 12:31:03;;;;;;;13.20;7.93;;;16.50;91.40;;;;;;5088155;28;20543;-68
2023/05/24 12:33:31;;;;;;;12.10;8.10;;;16.50;91.60;;;;;;5087469;28;20508;-68
2023/05/24 12:35:58;;;;;;;16.00;10.70;;;16.50;91.60;;;;;;5088192;28;20827;-68
2023/05/24 12:38:25;;;;;;;17.13;8.33;;;16.60;91.10;;;;;;5094630;28;20914;-68
2023/05/24 12:40:53;;;;;;;11.00;8.03;;;16.50;91.20;;;;;;5091205;28;20551;-68
2023/05/24 12:43:21;;;;;;;15.37;8.40;;;16.40;91.20;;;;;;5091413;28;20496;-68
2023/05/24 12:45:49;;;;;;;11.73;9.17;;;16.40;90.90;;;;;;5090188;28;20574;-68
2023/05/24 12:48:16;;;;;;;16.37;8.43;;;16.20;90.20;;;;;;5091072;28;20861;-68